Time;durP1;ratioP1;P1;durP2;ratioP2;P2;SDS_P1;SDS_P2;PMS_P1;PMS_P2;Temp;Humidity;BMP_temperature;BMP_pressure;BME280_temperature;BME280_humidity;BME280_pressure;Samples;Min_cycle;Max_cycle;Signal;HPM_P1;HPM_P2
2024/02/08 00:01:40;;;;;;;15.65;6.82;;;1.10;99.90;;;;;;5093870;28;20036;-89
2024/02/08 00:04:07;;;;;;;17.17;6.15;;;-0.20;99.90;;;;;;5095887;28;20051;-89
2024/02/08 00:06:33;;;;;;;15.25;5.43;;;-0.20;99.90;;;;;;5094134;28;20443;-89
2024/02/08 00:09:00;;;;;;;14.75;5.10;;;0.30;99.90;;;;;;5105175;28;20052;-89
2024/02/08 00:11:28;;;;;;;11.80;5.13;;;-0.20;99.90;;;;;;5096483;28;20492;-89
2024/02/08 00:13:54;;;;;;;11.23;4.55;;;-0.10;99.90;;;;;;5100464;28;20035;-89
2024/02/08 00:16:21;;;;;;;12.48;4.97;;;-0.10;99.90;;;;;;5094123;28;20123;-89
2024/02/08 00:18:48;;;;;;;15.00;5.22;;;-0.20;99.90;;;;;;5093988;28;20518;-90
2024/02/08 00:21:15;;;;;;;14.20;5.68;;;-0.10;99.90;;;;;;5098464;28;20451;-89
2024/02/08 00:23:41;;;;;;;9.63;5.10;;;0.70;99.90;;;;;;5102633;28;20040;-89
2024/02/08 00:26:08;;;;;;;16.70;6.32;;;1.00;99.90;;;;;;5097265;28;20044;-89
2024/02/08 00:28:35;;;;;;;12.48;5.32;;;1.10;99.90;;;;;;5104845;28;20520;-89
2024/02/08 00:31:04;;;;;;;11.75;4.70;;;-0.10;99.90;;;;;;5106719;28;20032;-88
2024/02/08 00:33:33;;;;;;;13.93;5.10;;;-0.10;99.90;;;;;;5131082;28;20044;-89
2024/02/08 00:36:03;;;;;;;16.42;5.10;;;-0.10;99.90;;;;;;5109853;28;20048;-88
2024/02/08 00:38:29;;;;;;;19.13;4.80;;;1.10;99.90;;;;;;5105641;28;20047;-88
2024/02/08 00:40:56;;;;;;;16.23;5.35;;;-0.20;99.90;;;;;;5103575;28;20062;-89
2024/02/08 00:43:23;;;;;;;10.23;4.68;;;0.50;99.90;;;;;;5104544;28;20036;-88
2024/02/08 00:45:49;;;;;;;20.42;4.50;;;-0.20;99.90;;;;;;5110356;28;20043;-88
2024/02/08 00:48:16;;;;;;;12.95;4.30;;;0.60;99.90;;;;;;5117659;28;20043;-89
2024/02/08 00:50:43;;;;;;;13.00;4.93;;;-0.20;99.90;;;;;;5110946;28;20040;-88
2024/02/08 00:53:09;;;;;;;19.63;4.80;;;-0.20;99.90;;;;;;5105656;28;20102;-89
2024/02/08 00:55:36;;;;;;;10.52;4.45;;;-0.20;99.90;;;;;;5101180;28;20416;-89
2024/02/08 00:58:03;;;;;;;12.98;4.15;;;-0.20;99.90;;;;;;5100617;28;20043;-89
2024/02/08 01:00:37;;;;;;;15.32;4.28;;;-0.20;99.90;;;;;;5110213;28;20032;-88
2024/02/08 01:03:05;;;;;;;14.18;4.53;;;-0.20;99.90;;;;;;5118721;28;20097;-89
2024/02/08 01:05:32;;;;;;;17.52;4.47;;;-0.20;99.90;;;;;;5107399;28;20849;-89
2024/02/08 01:08:00;;;;;;;10.80;3.95;;;-0.20;99.90;;;;;;5107210;28;20036;-89
2024/02/08 01:10:27;;;;;;;20.70;4.65;;;-0.10;99.90;;;;;;5106255;28;20094;-90
2024/02/08 01:12:54;;;;;;;10.65;4.32;;;-0.20;99.90;;;;;;5105996;28;20173;-89
2024/02/08 01:15:21;;;;;;;13.98;5.35;;;-0.20;99.90;;;;;;5103615;28;20089;-89
2024/02/08 01:17:51;;;;;;;11.63;4.30;;;-0.20;99.90;;;;;;5103501;28;20039;-89
2024/02/08 01:20:22;;;;;;;18.00;4.20;;;0.50;99.90;;;;;;5100719;28;20055;-89
2024/02/08 01:22:50;;;;;;;17.42;4.40;;;-0.20;99.90;;;;;;5110211;28;20036;-89
2024/02/08 01:25:16;;;;;;;16.55;4.10;;;0.70;99.90;;;;;;5108321;28;20055;-90
2024/02/08 01:27:43;;;;;;;17.92;4.80;;;1.00;99.90;;;;;;5106042;28;20055;-89
2024/02/08 01:30:13;;;;;;;11.05;4.20;;;-0.20;99.90;;;;;;5102298;28;20043;-89
2024/02/08 01:32:40;;;;;;;13.82;4.63;;;-0.10;99.90;;;;;;5101823;28;20515;-88
2024/02/08 01:35:10;;;;;;;10.23;4.05;;;-0.20;99.90;;;;;;5116858;28;20050;-89
2024/02/08 01:37:38;;;;;;;12.52;4.82;;;0.70;99.90;;;;;;5109358;28;20098;-89
2024/02/08 01:40:07;;;;;;;14.75;4.20;;;-0.10;99.90;;;;;;5104540;28;20039;-89
2024/02/08 01:42:37;;;;;;;14.00;4.32;;;-0.10;99.90;;;;;;5128007;28;20041;-89
2024/02/08 01:45:31;;;;;;;13.10;4.53;;;-0.10;99.90;;;;;;5109413;28;20105;-89
2024/02/08 01:48:02;;;;;;;12.68;3.83;;;-0.10;99.90;;;;;;5097406;28;20048;-90
2024/02/08 01:50:32;;;;;;;11.57;4.38;;;-0.10;99.90;;;;;;5119773;28;20071;-89
2024/02/08 01:52:59;;;;;;;8.95;3.60;;;-0.10;99.90;;;;;;5112964;28;20032;-89
2024/02/08 01:55:33;;;;;;;11.60;4.07;;;-0.10;99.90;;;;;;5109743;28;20058;-91
2024/02/08 01:58:04;;;;;;;10.85;4.50;;;0.20;99.90;;;;;;5104772;28;20123;-91
2024/02/08 02:00:38;;;;;;;10.80;3.90;;;-0.10;99.90;;;;;;5108665;28;20043;-91
2024/02/08 02:03:14;;;;;;;7.78;3.85;;;0.30;99.90;;;;;;5115415;28;20044;-92
2024/02/08 02:05:42;;;;;;;;;;;-0.10;99.90;;;;;;5097703;28;20044;-91
2024/02/08 02:08:10;;;;;;;15.60;3.67;;;-0.10;99.90;;;;;;5097423;28;19916;-91
2024/02/08 02:10:38;;;;;;;15.63;4.10;;;-0.10;99.90;;;;;;5101700;28;20127;-91
2024/02/08 02:13:08;;;;;;;11.10;3.90;;;-0.10;99.90;;;;;;5095935;28;20036;-92
2024/02/08 02:15:37;;;;;;;10.88;4.13;;;-0.20;99.90;;;;;;5121795;28;20520;-91
2024/02/08 02:18:09;;;;;;;14.25;4.93;;;0.90;99.90;;;;;;5106207;28;20044;-91
2024/02/08 02:20:36;;;;;;;20.77;4.05;;;-0.20;99.90;;;;;;5105788;28;20051;-91
2024/02/08 02:23:03;;;;;;;13.13;4.13;;;-0.20;99.90;;;;;;5098345;28;20404;-91
2024/02/08 02:25:34;;;;;;;9.70;3.90;;;-0.20;99.90;;;;;;5118422;28;20036;-91
2024/02/08 02:28:03;;;;;;;14.68;3.92;;;-0.20;99.90;;;;;;5113471;28;20120;-91
2024/02/08 02:30:30;;;;;;;17.38;5.43;;;-0.20;99.90;;;;;;5111022;28;20043;-91
2024/02/08 02:33:00;;;;;;;15.48;4.13;;;-0.20;99.90;;;;;;5114274;28;20091;-91
2024/02/08 02:35:28;;;;;;;11.57;3.95;;;-0.20;99.90;;;;;;5111470;28;20133;-92
2024/02/08 02:38:12;;;;;;;11.13;4.30;;;-0.20;99.90;;;;;;5112711;28;20043;-91
2024/02/08 02:40:41;;;;;;;14.45;3.78;;;-0.30;99.90;;;;;;5099849;28;20054;-92
2024/02/08 02:43:13;;;;;;;11.77;3.47;;;-0.20;99.90;;;;;;5110292;28;20043;-92
2024/02/08 02:45:43;;;;;;;10.45;3.25;;;-0.20;99.90;;;;;;5108920;28;20032;-91
2024/02/08 02:48:10;;;;;;;17.77;3.95;;;-0.20;99.90;;;;;;5125813;27;20800;-91
2024/02/08 02:50:43;;;;;;;14.38;4.10;;;-0.20;99.90;;;;;;5121730;28;20047;-91
2024/02/08 02:53:10;;;;;;;14.32;4.05;;;-0.20;99.90;;;;;;5123684;27;20055;-91
2024/02/08 02:55:37;;;;;;;14.07;3.38;;;-0.40;99.90;;;;;;5103273;28;20051;-90
2024/02/08 02:58:04;;;;;;;13.07;3.67;;;-0.20;99.90;;;;;;5111358;28;20574;-91
2024/02/08 03:00:33;;;;;;;12.57;3.70;;;0.50;99.90;;;;;;5113764;28;20035;-91
2024/02/08 03:03:07;;;;;;;10.38;3.97;;;-0.30;99.90;;;;;;5097563;28;20036;-92
2024/02/08 03:05:43;;;;;;;12.38;3.67;;;-0.20;99.90;;;;;;5103143;28;20035;-91
2024/02/08 03:08:10;;;;;;;14.73;3.03;;;0.60;99.90;;;;;;5102156;28;20377;-91
2024/02/08 03:10:42;;;;;;;12.77;3.30;;;-0.20;99.90;;;;;;5097251;28;20075;-91
2024/02/08 03:13:10;;;;;;;20.70;3.97;;;-0.20;99.90;;;;;;5107484;28;20440;-91
2024/02/08 03:15:36;;;;;;;15.35;4.43;;;-0.20;99.90;;;;;;5103132;28;20040;-92
2024/02/08 03:18:03;;;;;;;14.13;3.58;;;-0.20;99.90;;;;;;5127412;28;20036;-91
2024/02/08 03:20:30;;;;;;;12.65;3.58;;;-0.10;99.90;;;;;;5105203;28;20540;-92
2024/02/08 03:22:57;;;;;;;17.05;3.60;;;1.10;99.90;;;;;;5107014;28;20039;-91
2024/02/08 03:25:25;;;;;;;15.48;3.85;;;-0.10;99.90;;;;;;5102614;28;20044;-91
2024/02/08 03:27:52;;;;;;;12.35;3.65;;;-0.10;99.90;;;;;;5098763;28;20056;-92
2024/02/08 03:30:30;;;;;;;9.70;3.40;;;-0.10;99.90;;;;;;5097004;28;20051;-91
2024/02/08 03:32:58;;;;;;;14.90;4.38;;;0.00;99.90;;;;;;5111367;28;20048;-91
2024/02/08 03:35:29;;;;;;;11.23;3.90;;;0.00;99.90;;;;;;5113540;28;20040;-90
2024/02/08 03:37:56;;;;;;;12.25;4.10;;;0.50;99.90;;;;;;5094625;28;20039;-91
2024/02/08 03:40:25;;;;;;;14.10;3.60;;;0.00;99.90;;;;;;5111631;28;20036;-91
2024/02/08 03:42:55;;;;;;;14.85;4.05;;;0.00;99.90;;;;;;5143526;28;20043;-91
2024/02/08 03:45:27;;;;;;;13.00;4.10;;;0.00;99.90;;;;;;5128035;28;20067;-91
2024/02/08 03:47:59;;;;;;;18.35;4.05;;;1.20;99.90;;;;;;5106846;28;20082;-91
2024/02/08 03:50:29;;;;;;;20.25;4.30;;;0.00;99.90;;;;;;5094340;28;20040;-91
2024/02/08 03:52:58;;;;;;;11.23;3.25;;;1.00;99.90;;;;;;5100642;28;20408;-91
2024/02/08 03:55:27;;;;;;;13.48;3.92;;;0.10;99.90;;;;;;5106414;28;20043;-91
2024/02/08 03:57:56;;;;;;;11.60;3.30;;;0.10;99.90;;;;;;5099300;28;20145;-91
2024/02/08 04:00:28;;;;;;;12.38;4.32;;;0.10;99.90;;;;;;5094157;28;20040;-91
2024/02/08 04:03:02;;;;;;;17.38;3.55;;;0.20;99.90;;;;;;5106026;28;20040;-91
2024/02/08 04:55:27;;;;;;;9.88;3.45;;;1.00;99.90;;;;;;5114987;28;20050;-91
2024/02/08 04:57:55;;;;;;;11.30;3.42;;;-0.20;99.90;;;;;;5099387;28;20114;-91
2024/02/08 05:00:27;;;;;;;14.63;3.22;;;-0.20;99.90;;;;;;5094685;28;20051;-91
2024/02/08 05:03:00;;;;;;;11.48;3.28;;;0.90;99.90;;;;;;5094913;28;20047;-91
2024/02/08 05:05:27;;;;;;;17.45;3.00;;;-0.20;99.90;;;;;;5119705;28;20087;-92
2024/02/08 05:07:54;;;;;;;14.60;3.30;;;-0.30;99.90;;;;;;5101077;28;20088;-90
2024/02/08 05:10:20;;;;;;;13.80;3.25;;;0.80;99.90;;;;;;5097733;28;20047;-91
2024/02/08 05:12:50;;;;;;;12.93;2.72;;;0.40;99.90;;;;;;5108243;28;20044;-91
2024/02/08 05:15:18;;;;;;;14.07;3.25;;;-0.30;99.90;;;;;;5096308;28;20036;-92
2024/02/08 05:17:45;;;;;;;11.02;2.80;;;-0.30;99.90;;;;;;5112161;28;20072;-91
2024/02/08 05:20:12;;;;;;;11.25;3.35;;;-0.30;99.90;;;;;;5104049;28;20411;-91
2024/02/08 05:22:42;;;;;;;13.77;2.83;;;-0.40;99.90;;;;;;5100602;28;20032;-91
2024/02/08 05:25:10;;;;;;;14.23;3.25;;;-0.40;99.90;;;;;;5109858;28;20048;-91
2024/02/08 05:27:37;;;;;;;14.90;4.18;;;-0.40;99.90;;;;;;5104783;27;20071;-91
2024/02/08 05:30:05;;;;;;;11.93;3.30;;;0.20;99.90;;;;;;5105612;28;20043;-91
2024/02/08 05:32:35;;;;;;;15.15;3.33;;;-0.40;99.90;;;;;;5103165;28;20028;-91
2024/02/08 05:35:04;;;;;;;11.55;3.08;;;-0.60;99.90;;;;;;5101344;28;20531;-92
2024/02/08 05:37:31;;;;;;;10.68;2.95;;;-0.30;99.90;;;;;;5101368;28;20058;-91
2024/02/08 05:40:00;;;;;;;10.15;3.80;;;-0.30;99.90;;;;;;5096591;28;20043;-91
2024/02/08 05:42:27;;;;;;;14.70;3.53;;;-0.20;99.90;;;;;;5116094;28;20461;-91
2024/02/08 05:45:12;;;;;;;16.20;3.28;;;-1.00;99.90;;;;;;5102843;28;20040;-91
2024/02/08 05:47:39;;;;;;;12.27;3.53;;;-0.20;99.90;;;;;;5105431;28;20036;-91
2024/02/08 05:50:07;;;;;;;12.90;3.05;;;-0.10;99.90;;;;;;5097031;28;20043;-91
2024/02/08 05:52:33;;;;;;;14.15;3.42;;;-0.10;99.90;;;;;;5104733;28;20451;-91
2024/02/08 05:55:03;;;;;;;10.95;3.10;;;-0.10;99.90;;;;;;5112294;28;20067;-91
2024/02/08 05:57:30;;;;;;;14.05;3.10;;;0.00;99.90;;;;;;5100113;28;20035;-91
2024/02/08 06:00:00;;;;;;;11.90;3.10;;;0.00;99.90;;;;;;5098492;28;20131;-91
2024/02/08 06:02:26;;;;;;;10.48;3.40;;;0.00;99.90;;;;;;5110128;28;20043;-91
2024/02/08 06:05:00;;;;;;;10.07;3.35;;;0.10;99.90;;;;;;5099754;28;20047;-91
2024/02/08 06:07:30;;;;;;;8.73;3.10;;;0.90;99.90;;;;;;5099908;28;20042;-91
2024/02/08 06:10:07;;;;;;;13.18;2.80;;;0.10;99.90;;;;;;5099831;28;20047;-91
2024/02/08 06:12:43;;;;;;;12.10;2.90;;;0.20;99.90;;;;;;5103385;28;20434;-92
2024/02/08 06:15:24;;;;;;;11.95;2.67;;;1.20;99.90;;;;;;5108250;28;20043;-91
2024/02/08 06:17:57;;;;;;;15.52;3.38;;;1.60;99.90;;;;;;5102265;28;20032;-91
2024/02/08 06:20:43;;;;;;;11.55;3.03;;;1.20;99.90;;;;;;5105349;28;20046;-91
2024/02/08 06:23:16;;;;;;;;;;;0.30;99.90;;;;;;5101915;28;20040;-91
2024/02/08 06:25:47;;;;;;;13.45;2.70;;;0.30;99.90;;;;;;5098382;28;19923;-91
2024/02/08 06:28:13;;;;;;;11.45;2.63;;;0.30;99.90;;;;;;5098900;28;20424;-91
2024/02/08 06:30:46;;;;;;;10.85;2.63;;;0.40;99.90;;;;;;5098995;28;20039;-91
2024/02/08 06:33:25;;;;;;;10.45;2.83;;;0.30;99.90;;;;;;5108065;28;20032;-91
2024/02/08 06:35:56;;;;;;;13.18;2.70;;;1.30;99.90;;;;;;5099819;28;20043;-91
2024/02/08 06:38:51;;;;;;;10.48;2.90;;;1.70;99.90;;;;;;5095335;28;20090;-91
2024/02/08 06:41:24;;;;;;;15.30;2.95;;;1.70;99.90;;;;;;5124510;28;20583;-90
2024/02/08 06:43:57;;;;;;;14.05;2.75;;;0.40;99.90;;;;;;5106224;28;20040;-91
2024/02/08 06:46:47;;;;;;;9.93;2.65;;;0.40;99.90;;;;;;5100503;28;20293;-91
2024/02/08 07:39:30;;;;;;;10.50;2.78;;;0.60;99.90;;;;;;5115818;28;20055;-94
2024/02/08 07:41:53;;;;;;;;;;;;;;;;;;;;;
2024/02/08 07:44:30;;;;;;;12.45;2.70;;;0.70;99.90;;;;;;5123405;28;20044;-93
2024/02/08 07:46:57;;;;;;;12.63;2.97;;;0.70;99.90;;;;;;5098250;28;20116;-95
2024/02/08 07:49:41;;;;;;;11.13;3.45;;;0.70;99.90;;;;;;5096658;28;20518;-94
2024/02/08 07:52:14;;;;;;;13.45;3.10;;;0.80;99.90;;;;;;5096880;28;20090;-96
2024/02/08 07:54:42;;;;;;;15.23;2.95;;;0.80;99.90;;;;;;5101997;28;20036;-94
2024/02/08 07:57:11;;;;;;;11.75;3.17;;;0.80;99.90;;;;;;5103830;28;20467;-95
2024/02/08 07:59:42;;;;;;;12.15;3.45;;;0.80;99.90;;;;;;5098761;28;20086;-95
2024/02/08 08:02:12;;;;;;;14.75;3.35;;;0.90;99.90;;;;;;5102162;28;20123;-94
2024/02/08 08:04:51;;;;;;;12.32;3.17;;;0.90;99.90;;;;;;5107021;28;20031;-94
2024/02/08 08:07:23;;;;;;;9.15;3.08;;;0.90;99.90;;;;;;5101102;28;20035;-93
2024/02/08 08:09:59;;;;;;;18.50;3.42;;;0.90;99.90;;;;;;5104203;28;20040;-95
2024/02/08 08:12:28;;;;;;;11.13;3.33;;;0.90;99.90;;;;;;5102833;28;20040;-96
2024/02/08 08:20:04;;;;;;;13.73;3.25;;;1.30;99.90;;;;;;5111248;28;20044;-92
2024/02/08 08:28:09;;;;;;;14.43;4.18;;;1.10;99.90;;;;;;5117500;28;20079;-95
2024/02/08 08:30:53;;;;;;;21.75;4.00;;;1.20;99.90;;;;;;5107813;28;20480;-93
2024/02/08 08:33:58;;;;;;;10.60;4.25;;;2.00;99.90;;;;;;5098529;28;20512;-96
2024/02/08 08:36:28;;;;;;;12.57;4.20;;;1.20;99.90;;;;;;5111613;28;20040;-94
2024/02/08 08:39:46;;;;;;;17.35;4.22;;;1.30;99.90;;;;;;5112687;28;20040;-95
2024/02/08 08:41:47;;;;;;;16.05;3.67;;;1.30;99.90;;;;;;5114788;28;20082;-96
2024/02/08 08:44:18;;;;;;;12.18;4.50;;;2.50;99.90;;;;;;5094300;28;20097;-96
2024/02/08 08:46:45;;;;;;;9.00;4.07;;;1.40;99.90;;;;;;5122469;28;20040;-96
2024/02/08 08:49:14;;;;;;;11.13;4.35;;;1.50;99.90;;;;;;5098264;28;20092;-96
2024/02/08 08:51:58;;;;;;;15.30;4.13;;;1.60;99.90;;;;;;5119319;28;20035;-96
2024/02/08 08:54:29;;;;;;;11.77;4.18;;;1.60;99.90;;;;;;5099234;28;20059;-95
2024/02/08 08:56:58;;;;;;;15.82;4.05;;;2.90;99.90;;;;;;5111636;28;20063;-94
2024/02/08 08:59:26;;;;;;;9.20;4.00;;;2.90;99.90;;;;;;5105697;28;20031;-96
2024/02/08 09:01:52;;;;;;;20.02;4.28;;;2.40;99.90;;;;;;5110979;28;20500;-96
2024/02/08 09:04:25;;;;;;;14.98;4.55;;;2.80;99.90;;;;;;5102117;28;20097;-96
2024/02/08 09:06:52;;;;;;;12.52;4.32;;;3.00;99.90;;;;;;5100962;28;20380;-96
2024/02/08 09:09:38;;;;;;;14.35;4.10;;;1.70;99.90;;;;;;5112663;28;20043;-95
2024/02/08 09:12:05;;;;;;;14.80;4.22;;;3.00;99.90;;;;;;5130699;28;20097;-95
2024/02/08 09:14:32;;;;;;;13.98;3.63;;;2.00;99.90;;;;;;5106402;28;20097;-96
2024/02/08 09:17:00;;;;;;;14.57;3.92;;;3.40;99.90;;;;;;5106314;28;20500;-96
2024/02/08 09:19:31;;;;;;;17.83;4.00;;;1.90;99.90;;;;;;5106639;28;20040;-95
2024/02/08 09:22:02;;;;;;;14.88;3.60;;;2.10;99.90;;;;;;5101251;28;20040;-95
2024/02/08 09:24:29;;;;;;;14.50;3.42;;;3.30;99.90;;;;;;5106526;28;20400;-94
2024/02/08 09:29:42;;;;;;;9.85;3.45;;;2.30;99.90;;;;;;5130053;28;20416;-96
2024/02/08 09:35:11;;;;;;;15.50;3.95;;;3.60;99.90;;;;;;5111231;28;20500;-95
2024/02/08 09:37:45;;;;;;;16.77;4.05;;;2.50;99.90;;;;;;5105496;28;20036;-94
2024/02/08 09:40:42;;;;;;;14.63;3.85;;;3.90;99.90;;;;;;5099367;28;20040;-95
2024/02/08 09:43:18;;;;;;;;;;;2.60;99.90;;;;;;5119333;28;20058;-93
2024/02/08 09:46:10;;;;;;;15.23;3.37;;;2.70;99.90;;;;;;5110210;28;19916;-95
2024/02/08 09:48:43;;;;;;;18.33;3.00;;;2.70;99.90;;;;;;5121111;28;20112;-95
2024/02/08 09:51:13;;;;;;;12.63;3.35;;;4.10;99.90;;;;;;5106147;28;20062;-95
2024/02/08 09:53:51;;;;;;;12.20;3.10;;;3.90;99.90;;;;;;5101736;28;20072;-95
2024/02/08 09:56:28;;;;;;;12.10;3.30;;;4.30;99.90;;;;;;5115330;28;20044;-94
2024/02/08 09:59:02;;;;;;;13.82;2.92;;;3.00;99.90;;;;;;5105069;28;20067;-95
2024/02/08 10:01:35;;;;;;;16.45;3.33;;;4.30;99.90;;;;;;5101704;28;20054;-96
2024/02/08 10:04:05;;;;;;;12.85;3.15;;;4.10;99.90;;;;;;5119459;27;20043;-96
2024/02/08 10:07:16;;;;;;;17.10;3.72;;;3.10;99.90;;;;;;5123169;28;20035;-96
2024/02/08 10:09:53;;;;;;;11.18;3.45;;;4.60;99.90;;;;;;5124813;28;20118;-95
2024/02/08 10:12:30;;;;;;;16.80;3.50;;;3.30;99.90;;;;;;5111508;28;20040;-96
2024/02/08 10:14:59;;;;;;;14.70;3.35;;;4.60;99.90;;;;;;5101172;28;20044;-96
2024/02/08 10:17:28;;;;;;;12.25;2.80;;;3.40;99.90;;;;;;5102492;28;20577;-93
2024/02/08 10:22:56;;;;;;;14.00;3.35;;;3.60;99.90;;;;;;5121478;28;20118;-96
2024/02/08 10:28:09;;;;;;;11.90;2.72;;;3.60;99.90;;;;;;5114060;28;20102;-96
2024/02/08 10:30:37;;;;;;;13.88;3.13;;;4.70;99.90;;;;;;5111982;28;20048;-95
2024/02/08 10:33:04;;;;;;;19.98;3.60;;;4.90;99.90;;;;;;5102257;28;20127;-96
2024/02/08 10:35:39;;;;;;;16.30;3.22;;;3.90;99.90;;;;;;5114685;28;20039;-96
2024/02/08 10:38:18;;;;;;;18.65;3.92;;;3.90;99.90;;;;;;5128184;27;20031;-96
2024/02/08 10:40:55;;;;;;;13.02;3.20;;;4.00;99.90;;;;;;5109295;28;20093;-95
2024/02/08 10:43:25;;;;;;;12.32;2.92;;;5.20;99.90;;;;;;5105203;28;20040;-96
2024/02/08 10:46:02;;;;;;;16.33;3.58;;;4.00;99.90;;;;;;5099064;28;20048;-96
2024/02/08 10:48:29;;;;;;;17.70;3.03;;;4.80;99.90;;;;;;5096160;28;20449;-95
2024/02/08 10:51:02;;;;;;;13.55;3.00;;;4.00;99.90;;;;;;5099248;28;20044;-96
2024/02/08 10:53:45;;;;;;;11.18;2.70;;;5.20;99.90;;;;;;5095703;28;20043;-94
2024/02/08 10:56:17;;;;;;;12.98;3.40;;;5.30;99.90;;;;;;5109546;28;20039;-95
2024/02/08 10:58:55;;;;;;;12.75;3.40;;;4.00;99.90;;;;;;5102462;28;20543;-95
2024/02/08 11:01:33;;;;;;;13.25;3.03;;;4.00;99.90;;;;;;5102431;28;20043;-93
2024/02/08 11:04:18;;;;;;;15.32;3.90;;;4.00;99.90;;;;;;5109615;28;20044;-96
2024/02/08 11:07:33;;;;;;;12.75;3.28;;;4.10;99.90;;;;;;5104155;28;20038;-95
2024/02/08 11:10:00;;;;;;;15.48;2.80;;;4.00;99.90;;;;;;5110977;28;20095;-95
2024/02/08 11:12:32;;;;;;;10.15;2.40;;;5.40;99.90;;;;;;5104315;28;20083;-96
2024/02/08 11:15:15;;;;;;;18.38;2.92;;;5.30;99.90;;;;;;5116194;28;20040;-96
2024/02/08 11:17:52;;;;;;;9.30;2.42;;;4.10;99.90;;;;;;5105607;28;20051;-96
2024/02/08 11:20:44;;;;;;;9.95;2.47;;;5.40;99.90;;;;;;5116841;28;20056;-95
2024/02/08 11:23:12;;;;;;;10.30;2.35;;;4.10;99.90;;;;;;5115858;28;20035;-95
2024/02/08 11:25:44;;;;;;;11.85;2.47;;;4.10;99.90;;;;;;5106018;28;20040;-94
2024/02/08 11:28:15;;;;;;;8.45;2.15;;;4.20;99.90;;;;;;5102312;28;20146;-95
2024/02/08 11:30:46;;;;;;;10.50;3.08;;;4.10;99.90;;;;;;5103861;28;20094;-95
2024/02/08 11:33:14;;;;;;;11.73;2.83;;;5.20;99.90;;;;;;5105195;28;20085;-95
2024/02/08 11:35:56;;;;;;;9.77;2.50;;;4.50;99.90;;;;;;5106498;28;20407;-94
2024/02/08 11:38:34;;;;;;;10.50;2.38;;;4.20;99.90;;;;;;5102815;28;20032;-94
2024/02/08 11:41:09;;;;;;;9.25;2.45;;;5.00;99.90;;;;;;5105559;28;20040;-94
2024/02/08 11:43:46;;;;;;;10.98;2.40;;;4.10;99.90;;;;;;5103401;28;20032;-96
2024/02/08 11:46:22;;;;;;;5.88;1.67;;;4.70;99.90;;;;;;5111822;28;20035;-95
2024/02/08 11:48:49;;;;;;;12.18;2.17;;;5.30;99.90;;;;;;5102005;28;20044;-96
2024/02/08 11:51:22;;;;;;;12.45;3.65;;;4.90;99.90;;;;;;5105220;28;20043;-96
2024/02/08 11:53:51;;;;;;;12.30;2.30;;;5.30;99.90;;;;;;5096928;28;20075;-95
2024/02/08 11:56:20;;;;;;;12.93;2.35;;;5.20;99.90;;;;;;5096372;28;20131;-96
2024/02/08 11:58:48;;;;;;;11.20;2.17;;;5.00;99.90;;;;;;5100102;28;20040;-94
2024/02/08 12:01:17;;;;;;;13.13;2.10;;;4.10;99.90;;;;;;5095055;28;20028;-96
2024/02/08 12:03:44;;;;;;;14.15;2.08;;;4.90;99.90;;;;;;5096012;28;20032;-96
2024/02/08 12:06:17;;;;;;;15.73;2.72;;;5.40;99.90;;;;;;5102501;28;20062;-95
2024/02/08 12:08:55;;;;;;;13.98;2.60;;;4.10;99.90;;;;;;5105954;28;20046;-96
2024/02/08 12:11:22;;;;;;;5.93;2.13;;;4.20;99.90;;;;;;5104952;28;20035;-95
2024/02/08 12:13:52;;;;;;;10.70;2.30;;;5.40;99.90;;;;;;5105616;28;20042;-96
2024/02/08 12:16:19;;;;;;;12.13;2.47;;;5.50;99.90;;;;;;5112431;28;20088;-96
2024/02/08 12:18:55;;;;;;;11.20;3.20;;;5.30;99.90;;;;;;5093995;28;20044;-96
2024/02/08 12:21:23;;;;;;;;;;;5.40;99.90;;;;;;5125637;28;20040;-96
2024/02/08 12:23:53;;;;;;;11.82;2.40;;;4.10;99.90;;;;;;5103833;28;20006;-96
2024/02/08 12:26:23;;;;;;;9.95;2.30;;;5.20;99.90;;;;;;5099329;28;20547;-96
2024/02/08 12:28:56;;;;;;;13.25;2.38;;;5.20;99.90;;;;;;5111592;28;20052;-96
2024/02/08 12:31:29;;;;;;;20.08;2.92;;;5.30;99.90;;;;;;5101361;28;20040;-96
2024/02/08 12:33:58;;;;;;;12.50;2.58;;;4.00;99.90;;;;;;5105344;28;20079;-96
2024/02/08 12:36:30;;;;;;;9.90;2.80;;;4.60;99.90;;;;;;5108428;28;20074;-94
2024/02/08 12:39:00;;;;;;;10.73;2.60;;;5.20;99.90;;;;;;5103661;28;20055;-95
2024/02/08 12:41:29;;;;;;;11.45;2.40;;;5.10;99.90;;;;;;5118983;28;20036;-95
2024/02/08 12:43:57;;;;;;;12.90;3.13;;;3.00;99.90;;;;;;5131751;27;20104;-96
2024/02/08 12:46:23;;;;;;;13.02;3.15;;;4.10;99.90;;;;;;5112323;28;20052;-94
2024/02/08 12:48:50;;;;;;;11.45;2.38;;;4.90;99.90;;;;;;5107608;28;20043;-95
2024/02/08 12:51:23;;;;;;;13.68;2.95;;;4.00;99.90;;;;;;5100136;28;20040;-95
2024/02/08 12:53:56;;;;;;;11.02;2.83;;;5.20;99.90;;;;;;5107658;28;20434;-95
2024/02/08 12:56:23;;;;;;;9.32;3.20;;;4.10;99.90;;;;;;5101917;28;20063;-94
2024/02/08 12:59:01;;;;;;;13.15;3.17;;;4.10;99.90;;;;;;5113075;28;20036;-95
2024/02/08 13:01:34;;;;;;;11.48;3.75;;;4.50;99.90;;;;;;5103217;28;20463;-95
2024/02/08 13:04:01;;;;;;;14.52;3.00;;;5.10;99.90;;;;;;5117605;28;20028;-93
2024/02/08 13:06:28;;;;;;;16.20;3.35;;;4.00;99.90;;;;;;5111420;28;20032;-95
2024/02/08 13:12:18;;;;;;;13.20;3.15;;;4.00;99.90;;;;;;5114453;28;20052;-94
2024/02/08 13:14:50;;;;;;;12.13;3.00;;;4.00;99.90;;;;;;5107607;28;20485;-95
2024/02/08 13:17:25;;;;;;;11.50;2.80;;;5.00;99.90;;;;;;5115747;28;20048;-95
2024/02/08 13:19:57;;;;;;;11.82;3.22;;;4.00;99.90;;;;;;5097577;28;20086;-95
2024/02/08 13:22:25;;;;;;;16.55;2.80;;;4.00;99.90;;;;;;5125134;28;20769;-94
2024/02/08 13:24:52;;;;;;;14.48;3.58;;;4.00;99.90;;;;;;5116984;28;20044;-94
2024/02/08 13:27:24;;;;;;;13.38;2.85;;;4.50;99.90;;;;;;5113467;28;20503;-96
2024/02/08 13:29:52;;;;;;;15.13;3.10;;;4.00;99.90;;;;;;5096666;28;20109;-94
2024/02/08 13:32:24;;;;;;;12.27;2.85;;;4.90;99.90;;;;;;5102142;28;20415;-95
2024/02/08 13:34:53;;;;;;;10.40;2.60;;;4.80;99.90;;;;;;5107348;28;20066;-94
2024/02/08 13:37:22;;;;;;;14.23;2.60;;;4.10;99.90;;;;;;5106984;28;20108;-95
2024/02/08 13:39:50;;;;;;;11.85;2.75;;;5.00;99.90;;;;;;5104642;28;20040;-96
2024/02/08 13:42:19;;;;;;;8.40;3.40;;;3.90;99.90;;;;;;5108876;28;20043;-95
2024/02/08 13:44:46;;;;;;;12.48;2.65;;;5.00;99.90;;;;;;5097777;28;20047;-95
2024/02/08 13:47:12;;;;;;;15.15;2.63;;;5.00;99.90;;;;;;5102969;28;20032;-96
2024/02/08 13:49:39;;;;;;;9.68;2.33;;;5.10;99.90;;;;;;5108213;28;20131;-96
2024/02/08 13:52:06;;;;;;;12.35;2.83;;;3.90;99.90;;;;;;5100066;28;20059;-96
2024/02/08 13:54:37;;;;;;;14.23;2.53;;;4.60;99.90;;;;;;5105987;28;20512;-95
2024/02/08 13:57:14;;;;;;;13.35;2.83;;;3.90;99.90;;;;;;5102781;28;20042;-95
2024/02/08 13:59:46;;;;;;;10.45;2.40;;;3.90;99.90;;;;;;5102355;28;20039;-96
2024/02/08 14:02:15;;;;;;;16.60;2.42;;;5.00;99.90;;;;;;5103972;28;20044;-96
2024/02/08 14:04:49;;;;;;;14.43;2.45;;;3.90;99.90;;;;;;5103565;28;20040;-94
2024/02/08 14:07:29;;;;;;;11.80;2.05;;;5.00;99.90;;;;;;5113069;28;20040;-94
2024/02/08 14:09:59;;;;;;;8.25;1.75;;;4.80;99.90;;;;;;5103525;28;20040;-95
2024/02/08 14:12:27;;;;;;;7.20;1.30;;;4.90;99.90;;;;;;5102893;28;20496;-95
2024/02/08 14:14:55;;;;;;;12.27;1.33;;;3.50;99.90;;;;;;5103345;28;20423;-96
2024/02/08 14:17:34;;;;;;;6.68;1.42;;;4.70;99.90;;;;;;5105795;28;20031;-94
2024/02/08 14:20:04;;;;;;;2.40;1.00;;;3.80;99.90;;;;;;5108780;28;20044;-87
2024/02/08 14:22:38;;;;;;;4.30;0.90;;;4.00;99.90;;;;;;5109533;28;20100;-87
2024/02/08 14:28:57;;;;;;;2.80;0.50;;;4.20;99.90;;;;;;5052442;28;20059;-96
2024/02/08 14:31:23;;;;;;;3.20;0.82;;;4.50;99.90;;;;;;5107122;28;20040;-96
2024/02/08 14:33:51;;;;;;;2.30;0.60;;;3.40;99.90;;;;;;5113074;28;20492;-96
2024/02/08 14:36:18;;;;;;;6.25;1.08;;;4.60;99.90;;;;;;5112379;28;20114;-96
2024/02/08 14:38:48;;;;;;;3.30;1.08;;;3.80;99.90;;;;;;5101702;28;20039;-96
2024/02/08 14:41:32;;;;;;;4.22;1.70;;;3.10;99.90;;;;;;5101884;28;20032;-96
2024/02/08 14:44:07;;;;;;;4.82;1.05;;;3.80;99.90;;;;;;5106108;28;20044;-96
2024/02/08 14:46:39;;;;;;;4.45;1.10;;;3.80;99.90;;;;;;5104291;28;20036;-95
2024/02/08 14:49:17;;;;;;;8.02;1.45;;;2.60;99.90;;;;;;5113828;28;20067;-96
2024/02/08 14:51:47;;;;;;;3.80;1.27;;;3.80;99.90;;;;;;5100962;28;20101;-96
2024/02/08 14:54:18;;;;;;;5.80;2.00;;;3.40;99.90;;;;;;5117837;28;20097;-96
2024/02/08 14:57:03;;;;;;;3.90;1.10;;;3.30;99.90;;;;;;5106507;28;20063;-96
2024/02/08 16:35:32;;;;;;;9.60;3.33;;;1.50;99.90;;;;;;4984081;28;20133;-96
2024/02/08 16:38:09;;;;;;;7.93;4.55;;;1.60;99.90;;;;;;4985788;29;20070;-96
2024/02/08 16:40:52;;;;;;;11.68;3.42;;;1.60;99.90;;;;;;4993357;29;20123;-95
2024/02/08 16:43:32;;;;;;;5.57;3.22;;;2.60;99.90;;;;;;4969080;29;20039;-96
2024/02/08 16:46:11;;;;;;;8.32;3.50;;;2.60;99.90;;;;;;4990195;29;20071;-95
2024/02/08 16:49:03;;;;;;;8.13;2.80;;;2.70;99.90;;;;;;4997137;29;20133;-94
2024/02/08 16:51:49;;;;;;;8.20;3.92;;;1.90;99.90;;;;;;4997653;29;20497;-96
2024/02/08 18:34:43;;;;;;;5.47;1.88;;;0.90;99.90;;;;;;4928278;29;20052;-93
2024/02/08 18:37:11;;;;;;;4.90;2.50;;;1.50;99.90;;;;;;4898338;29;20065;-95